KCMY/CMY METAR and TAF weather

Enter ICAO airport designator
Station Type Date Time Source
KCMY METAR 2020/01/21 21:35 UTC NOAA

KCMY 212135Z AUTO 19008KT 10SM CLR M06/M11 A3034 RMK AO2 T10571115


Station Type Date Time Source
KCMY Decoded METAR 2020/01/21 21:35 UTC NOAA

Sparta, Sparta / Fort McCoy Airport, WI, United States (KCMY) 43-57-30N 090-44-16W
Jan 21, 2020 - 04:35 PM EST / 2020.01.21 2135 UTC
Wind: from the S (190 degrees) at 9 MPH (8 KT):0
Visibility: 10 mile(s):0
Sky conditions: clear
Temperature: 21.7 F (-5.7 C)
Windchill: 12 F (-11 C):1
Dew Point: 11.3 F (-11.5 C)
Relative Humidity: 63%
Pressure (altimeter): 30.34 in. Hg (1027 hPa)
ob: KCMY 212135Z AUTO 19008KT 10SM CLR M06/M11 A3034 RMK AO2 T10571115
cycle: 21

Station Type Date Time Source
KCMY TAF UTC NOAA

Error!

Example: see airport list